createdAt,value
2023-02-23T00:02:07.943Z,13.27
2023-02-23T00:04:35.985Z,12.43
2023-02-23T00:07:03.753Z,13.40
2023-02-23T00:09:35.533Z,15.20
2023-02-23T00:12:09.676Z,18.15
2023-02-23T00:14:38.847Z,14.93
2023-02-23T00:17:14.154Z,16.08
2023-02-23T00:19:43.386Z,13.90
2023-02-23T00:22:10.727Z,14.15
2023-02-23T00:24:38.792Z,10.75
2023-02-23T00:27:06.660Z,11.48
2023-02-23T00:29:39.411Z,14.35
2023-02-23T00:34:36.650Z,12.48
2023-02-23T00:37:04.956Z,12.05
2023-02-23T00:39:32.026Z,12.60
2023-02-23T00:42:02.849Z,11.98
2023-02-23T00:44:31.839Z,16.45
2023-02-23T00:46:59.394Z,11.57
2023-02-23T00:49:27.298Z,14.45
2023-02-23T00:51:54.675Z,15.43
2023-02-23T00:54:22.213Z,14.73
2023-02-23T00:56:50.764Z,14.45
2023-02-23T00:59:18.939Z,14.48
2023-02-23T01:01:47.010Z,18.05
2023-02-23T01:04:14.938Z,16.23
2023-02-23T01:06:43.138Z,19.67
2023-02-23T01:09:21.838Z,17.60
2023-02-23T01:11:49.726Z,19.27
2023-02-23T01:14:16.743Z,17.42
2023-02-23T01:16:44.119Z,21.88
2023-02-23T01:19:11.321Z,17.02
2023-02-23T01:21:42.525Z,15.95
2023-02-23T01:24:11.879Z,13.60
2023-02-23T01:26:43.281Z,16.58
2023-02-23T01:29:15.661Z,19.52
2023-02-23T01:34:18.146Z,15.70
2023-02-23T01:36:45.521Z,16.60
2023-02-23T01:39:17.224Z,11.20
2023-02-23T01:41:45.843Z,15.23
2023-02-23T01:44:12.843Z,13.70
2023-02-23T01:46:45.990Z,14.45
2023-02-23T01:49:29.361Z,14.65
2023-02-23T01:52:12.894Z,15.15
2023-02-23T01:54:50.364Z,16.50
2023-02-23T01:57:21.895Z,16.45
2023-02-23T01:59:50.215Z,20.73
2023-02-23T02:02:22.336Z,17.92
2023-02-23T02:04:52.074Z,19.55
2023-02-23T02:07:28.789Z,15.82
2023-02-23T02:10:10.796Z,18.15
2023-02-23T02:12:54.777Z,16.10
2023-02-23T02:15:27.126Z,13.93
2023-02-23T02:18:31.941Z,16.58
2023-02-23T02:21:24.200Z,17.15
2023-02-23T02:24:32.895Z,15.73
2023-02-23T02:27:57.592Z,16.70
2023-02-23T02:31:24.086Z,17.08
2023-02-23T02:34:39.005Z,19.20
2023-02-23T02:37:35.244Z,20.63
2023-02-23T02:40:21.277Z,22.23
2023-02-23T02:43:38.685Z,21.38
2023-02-23T02:46:27.075Z,19.55
2023-02-23T02:49:08.749Z,14.38
2023-02-23T02:51:55.304Z,15.93
2023-02-23T02:54:45.344Z,15.02
2023-02-23T02:57:13.828Z,14.98
2023-02-23T03:00:06.599Z,18.25
2023-02-23T03:02:57.787Z,15.25
2023-02-23T03:06:06.542Z,18.30
2023-02-23T03:09:13.071Z,17.05
2023-02-23T03:12:21.131Z,14.50
2023-02-23T03:15:19.525Z,21.38
2023-02-23T03:18:11.392Z,22.58
2023-02-23T03:21:15.245Z,22.52
2023-02-23T03:24:23.389Z,23.25
2023-02-23T03:27:42.093Z,23.00
2023-02-23T03:30:45.352Z,22.98
2023-02-23T03:33:42.827Z,20.58
2023-02-23T03:36:40.269Z,16.38
2023-02-23T03:39:56.553Z,24.23
2023-02-23T03:42:49.944Z,19.80
2023-02-23T03:45:42.182Z,14.25
2023-02-23T03:48:31.872Z,14.98
2023-02-23T03:51:27.413Z,14.02
2023-02-23T03:54:28.216Z,14.63
2023-02-23T03:57:17.980Z,15.35
2023-02-23T04:00:11.983Z,15.40
2023-02-23T04:03:06.971Z,16.45
2023-02-23T04:05:58.467Z,13.32
2023-02-23T04:08:53.268Z,15.88
2023-02-23T04:12:02.277Z,12.18
2023-02-23T04:14:38.524Z,15.60
2023-02-23T04:17:09.471Z,14.07
2023-02-23T04:19:36.805Z,13.35
2023-02-23T04:22:04.099Z,15.93
2023-02-23T04:24:31.095Z,18.08
2023-02-23T04:26:58.342Z,16.35
2023-02-23T04:29:25.300Z,16.08
2023-02-23T04:31:54.458Z,26.08
2023-02-23T04:34:21.499Z,21.52
2023-02-23T04:36:51.184Z,15.48
2023-02-23T04:39:18.228Z,14.73
2023-02-23T04:41:45.818Z,14.48
2023-02-23T04:44:13.197Z,17.75
2023-02-23T04:46:40.377Z,18.17
2023-02-23T04:49:07.323Z,16.38
2023-02-23T04:51:36.563Z,15.18
2023-02-23T04:54:04.964Z,16.23
2023-02-23T04:56:32.407Z,22.10
2023-02-23T04:59:00.204Z,25.25
2023-02-23T05:01:29.296Z,26.05
2023-02-23T05:03:56.257Z,16.50
2023-02-23T05:06:23.500Z,19.85
2023-02-23T05:08:50.483Z,16.42
2023-02-23T05:11:18.236Z,16.52
2023-02-23T05:13:45.292Z,17.00
2023-02-23T05:16:12.757Z,19.40
2023-02-23T05:18:39.922Z,19.65
2023-02-23T05:21:10.695Z,21.23
2023-02-23T05:23:39.053Z,25.52
2023-02-23T05:26:11.731Z,25.20
2023-02-23T05:28:41.873Z,23.17
2023-02-23T05:31:10.330Z,21.25
2023-02-23T05:33:45.956Z,23.20
2023-02-23T05:36:17.456Z,21.67
2023-02-23T05:38:46.105Z,19.52
2023-02-23T05:41:17.507Z,18.08
2023-02-23T05:43:44.831Z,17.55
2023-02-23T05:46:17.328Z,27.00
2023-02-23T05:48:44.472Z,22.15
2023-02-23T05:51:15.486Z,19.23
2023-02-23T05:53:43.366Z,22.63
2023-02-23T05:56:20.825Z,21.08
2023-02-23T05:58:50.248Z,25.40
2023-02-23T06:01:18.387Z,20.92
2023-02-23T06:03:46.155Z,23.00
2023-02-23T06:06:14.394Z,24.30
2023-02-23T06:08:41.958Z,24.27
2023-02-23T06:11:10.232Z,26.75
2023-02-23T06:13:37.213Z,27.00
2023-02-23T06:16:05.237Z,23.63
2023-02-23T06:18:32.245Z,33.80
2023-02-23T06:21:01.804Z,34.40
2023-02-23T06:23:30.508Z,24.00
2023-02-23T06:25:59.477Z,35.58
2023-02-23T06:28:28.249Z,31.63
2023-02-23T06:30:56.891Z,38.88
2023-02-23T06:33:24.174Z,31.48
2023-02-23T06:35:52.543Z,28.90
2023-02-23T06:38:20.410Z,27.05
2023-02-23T06:40:47.852Z,27.63
2023-02-23T06:43:14.854Z,27.27
2023-02-23T06:45:42.112Z,30.35
2023-02-23T06:48:09.170Z,24.48
2023-02-23T06:50:36.401Z,19.40
2023-02-23T06:53:03.573Z,24.13
2023-02-23T06:55:31.035Z,29.23
2023-02-23T06:57:58.273Z,21.85
2023-02-23T07:00:25.759Z,25.90
2023-02-23T07:02:52.754Z,28.38
2023-02-23T07:05:21.030Z,21.25
2023-02-23T07:07:48.199Z,26.88
2023-02-23T07:10:15.562Z,23.42
2023-02-23T07:12:42.575Z,22.85
2023-02-23T07:15:11.523Z,28.00
2023-02-23T07:17:38.874Z,27.77
2023-02-23T07:20:06.888Z,26.35
2023-02-23T07:22:34.300Z,24.23
2023-02-23T07:25:01.586Z,26.35
2023-02-23T07:27:28.816Z,29.98
2023-02-23T07:29:55.999Z,28.65
2023-02-23T07:32:23.145Z,28.58
2023-02-23T07:34:53.433Z,26.55
2023-02-23T07:37:21.414Z,21.95
2023-02-23T07:39:48.735Z,21.75
2023-02-23T07:42:15.735Z,24.80
2023-02-23T07:44:43.086Z,29.25
2023-02-23T07:47:11.067Z,33.05
2023-02-23T07:49:38.372Z,34.78
2023-02-23T07:52:05.441Z,33.67
2023-02-23T07:54:33.162Z,32.60
2023-02-23T07:57:00.607Z,31.38
2023-02-23T07:59:28.600Z,29.98
2023-02-23T08:01:55.548Z,26.52
2023-02-23T08:04:22.907Z,26.55
2023-02-23T08:06:49.941Z,28.17
2023-02-23T08:09:17.261Z,28.10
2023-02-23T08:11:45.055Z,28.98
2023-02-23T08:14:12.952Z,30.58
2023-02-23T08:16:40.099Z,26.13
2023-02-23T08:19:07.500Z,33.42
2023-02-23T08:21:34.428Z,27.85
2023-02-23T08:24:01.658Z,23.40
2023-02-23T08:26:28.722Z,30.80
2023-02-23T08:28:56.119Z,19.15
2023-02-23T08:31:24.712Z,19.02
2023-02-23T08:33:56.282Z,22.92
2023-02-23T08:36:23.212Z,17.08
2023-02-23T08:38:51.092Z,19.52
2023-02-23T08:41:18.357Z,24.98
2023-02-23T08:43:46.232Z,27.52
2023-02-23T08:46:13.930Z,27.85
2023-02-23T08:48:41.392Z,17.88
2023-02-23T08:51:09.040Z,27.48
2023-02-23T08:53:36.607Z,20.40
2023-02-23T08:56:07.630Z,20.58
2023-02-23T08:58:36.783Z,21.23
2023-02-23T09:01:05.113Z,19.65
2023-02-23T09:03:38.257Z,19.23
2023-02-23T09:06:16.878Z,20.95
2023-02-23T09:08:44.366Z,28.73
2023-02-23T09:11:11.301Z,21.83
2023-02-23T09:13:38.580Z,18.33
2023-02-23T09:16:10.169Z,19.30
2023-02-23T09:18:38.723Z,22.48
2023-02-23T09:21:14.356Z,19.13
2023-02-23T09:23:41.773Z,18.60
2023-02-23T09:26:09.019Z,22.95
2023-02-23T09:28:38.166Z,25.00
2023-02-23T09:31:11.874Z,31.73
2023-02-23T09:33:40.503Z,33.67
2023-02-23T09:36:16.131Z,27.40
2023-02-23T09:38:49.580Z,26.50
2023-02-23T09:41:25.888Z,31.25
2023-02-23T09:44:17.362Z,31.83
2023-02-23T09:47:24.024Z,28.48
2023-02-23T09:49:53.429Z,28.45
2023-02-23T09:52:28.028Z,30.83
2023-02-23T09:54:55.782Z,23.15
2023-02-23T09:57:43.702Z,23.58
2023-02-23T10:00:20.087Z,28.98
2023-02-23T10:03:17.131Z,34.17
2023-02-23T10:05:59.506Z,30.02
2023-02-23T10:09:03.851Z,29.90
2023-02-23T10:12:11.337Z,35.65
2023-02-23T10:15:07.283Z,32.92
2023-02-23T10:18:04.140Z,37.17
2023-02-23T10:21:05.934Z,31.45
2023-02-23T10:23:58.169Z,34.70
2023-02-23T10:26:47.264Z,28.05
2023-02-23T10:29:28.886Z,23.02
2023-02-23T10:32:39.016Z,32.33
2023-02-23T10:35:20.391Z,30.88
2023-02-23T10:37:49.883Z,31.52
2023-02-23T10:40:25.331Z,31.02
2023-02-23T10:42:54.081Z,22.50
2023-02-23T10:45:28.537Z,26.35
2023-02-23T10:48:05.573Z,33.53
2023-02-23T10:50:37.643Z,33.20
2023-02-23T10:53:16.620Z,34.22
2023-02-23T10:55:45.605Z,33.97
2023-02-23T10:58:20.761Z,27.80
2023-02-23T11:01:01.866Z,26.10
2023-02-23T11:03:57.723Z,32.47
2023-02-23T11:06:42.984Z,26.85
2023-02-23T11:09:44.436Z,28.38
2023-02-23T11:12:26.368Z,27.23
2023-02-23T11:14:57.255Z,28.95
2023-02-23T11:17:36.305Z,31.08
2023-02-23T11:20:35.937Z,22.73
2023-02-23T11:23:14.706Z,29.80
2023-02-23T11:25:45.477Z,27.80
2023-02-23T11:28:30.453Z,29.10
2023-02-23T11:31:16.095Z,29.20
2023-02-23T11:33:45.894Z,30.40
2023-02-23T11:36:28.478Z,24.52
2023-02-23T11:41:37.028Z,29.85
2023-02-23T11:44:06.260Z,33.38
2023-02-23T11:46:39.173Z,26.73
2023-02-23T11:49:15.394Z,25.55
2023-02-23T11:51:49.842Z,32.70
2023-02-23T11:54:27.345Z,31.45
2023-02-23T11:56:55.446Z,30.13
2023-02-23T11:59:35.524Z,30.30
2023-02-23T12:02:27.097Z,31.02
2023-02-23T12:05:23.137Z,24.88
2023-02-23T12:08:02.701Z,32.70
2023-02-23T12:10:39.232Z,26.98
2023-02-23T12:13:32.661Z,28.67
2023-02-23T12:16:24.846Z,30.38
2023-02-23T12:19:23.796Z,29.02
2023-02-23T12:22:06.536Z,25.67
2023-02-23T12:25:12.353Z,31.33
2023-02-23T12:27:50.608Z,29.50
2023-02-23T12:30:27.610Z,24.92
2023-02-23T12:33:40.837Z,29.38
2023-02-23T12:36:39.438Z,27.67
2023-02-23T12:39:27.762Z,28.08
2023-02-23T12:42:01.426Z,30.27
2023-02-23T12:44:46.372Z,30.13
2023-02-23T12:47:39.584Z,23.48
2023-02-23T12:50:26.033Z,24.02
2023-02-23T12:53:21.082Z,30.48
2023-02-23T12:56:23.587Z,36.83
2023-02-23T12:58:58.369Z,28.77
2023-02-23T13:01:35.301Z,38.85
2023-02-23T13:04:12.841Z,30.52
2023-02-23T13:07:12.267Z,30.45
2023-02-23T13:10:02.665Z,27.05
2023-02-23T13:13:25.717Z,25.55
2023-02-23T13:16:24.152Z,33.08
2023-02-23T13:18:52.124Z,28.85
2023-02-23T13:21:25.139Z,28.85
2023-02-23T13:24:13.887Z,28.55
2023-02-23T13:27:32.331Z,24.27
2023-02-23T13:30:00.485Z,28.08
2023-02-23T13:32:33.590Z,40.03
2023-02-23T13:35:06.989Z,28.23
2023-02-23T13:37:45.538Z,35.38
2023-02-23T13:40:53.615Z,30.30
2023-02-23T13:43:37.091Z,27.33
2023-02-23T13:46:30.764Z,29.48
2023-02-23T13:49:26.082Z,25.35
2023-02-23T13:52:00.745Z,24.48
2023-02-23T13:54:36.472Z,23.98
2023-02-23T13:57:16.594Z,25.83
2023-02-23T13:59:46.303Z,28.15
2023-02-23T14:02:36.575Z,36.75
2023-02-23T14:05:26.211Z,25.23
2023-02-23T14:08:04.426Z,23.63
2023-02-23T14:10:43.293Z,32.22
2023-02-23T14:13:13.482Z,27.05
2023-02-23T14:16:07.371Z,31.67
2023-02-23T14:18:35.543Z,28.45
2023-02-23T14:21:21.705Z,25.23
2023-02-23T14:24:26.625Z,30.52
2023-02-23T14:27:41.368Z,30.15
2023-02-23T14:30:12.020Z,27.88
2023-02-23T14:32:46.037Z,25.70
2023-02-23T14:35:32.066Z,34.00
2023-02-23T14:38:05.212Z,27.48
2023-02-23T14:40:40.219Z,29.08
2023-02-23T14:43:38.101Z,32.60
2023-02-23T14:46:21.432Z,30.00
2023-02-23T14:49:10.226Z,31.80
2023-02-23T14:51:42.062Z,32.22
2023-02-23T14:54:31.312Z,32.42
2023-02-23T14:57:03.624Z,32.28
2023-02-23T14:59:42.488Z,37.67
2023-02-23T15:02:19.266Z,37.45
2023-02-23T15:04:46.482Z,30.85
2023-02-23T15:07:34.886Z,43.47
2023-02-23T15:10:09.442Z,34.90
2023-02-23T15:12:39.061Z,40.17
2023-02-23T15:15:18.496Z,26.90
2023-02-23T15:17:50.390Z,30.60
2023-02-23T15:20:23.809Z,24.73
2023-02-23T15:22:59.233Z,27.88
2023-02-23T15:25:40.632Z,23.80
2023-02-23T15:28:20.341Z,19.75
2023-02-23T15:30:50.539Z,23.75
2023-02-23T15:33:32.349Z,22.08
2023-02-23T15:36:16.038Z,20.98
2023-02-23T15:38:49.427Z,27.48
2023-02-23T15:41:36.044Z,19.50
2023-02-23T15:44:22.813Z,20.27
2023-02-23T15:46:57.066Z,21.25
2023-02-23T15:49:33.850Z,25.05
2023-02-23T15:52:09.472Z,22.35
2023-02-23T15:55:10.020Z,19.73
2023-02-23T15:57:53.837Z,19.55
2023-02-23T16:00:38.385Z,19.02
2023-02-23T16:03:08.555Z,17.48
2023-02-23T16:05:47.124Z,14.88
2023-02-23T16:08:25.257Z,16.02
2023-02-23T16:11:04.072Z,15.48
2023-02-23T16:13:31.337Z,19.45
2023-02-23T16:15:58.991Z,15.18
2023-02-23T16:18:40.958Z,17.27
2023-02-23T16:21:16.810Z,18.85
2023-02-23T16:23:50.459Z,17.20
2023-02-23T16:26:26.710Z,18.42
2023-02-23T16:29:02.095Z,17.23
2023-02-23T16:31:44.238Z,19.25
2023-02-23T16:34:37.597Z,16.50
2023-02-23T16:37:18.235Z,14.57
2023-02-23T16:39:45.843Z,17.38
2023-02-23T16:42:35.916Z,16.98
2023-02-23T16:45:03.159Z,21.10
2023-02-23T16:47:41.409Z,21.83
2023-02-23T16:50:24.902Z,22.75
2023-02-23T16:52:53.655Z,27.40
2023-02-23T16:55:28.529Z,28.50
2023-02-23T16:58:07.814Z,36.72
2023-02-23T17:00:35.088Z,32.63
2023-02-23T17:03:05.533Z,34.08
2023-02-23T17:05:33.336Z,31.23
2023-02-23T17:08:00.665Z,35.67
2023-02-23T17:10:34.278Z,36.92
2023-02-23T17:13:08.770Z,35.33
2023-02-23T17:15:41.134Z,33.90
2023-02-23T17:20:35.218Z,33.85
2023-02-23T17:23:03.721Z,32.40
2023-02-23T17:25:31.112Z,34.35
2023-02-23T17:27:59.884Z,37.28
2023-02-23T17:30:28.446Z,31.52
2023-02-23T17:32:58.740Z,33.38
2023-02-23T17:35:26.836Z,35.20
2023-02-23T17:37:54.653Z,37.65
2023-02-23T17:40:29.107Z,33.40
2023-02-23T17:42:59.910Z,34.72
2023-02-23T17:45:28.469Z,33.08
2023-02-23T17:47:57.503Z,33.28
2023-02-23T17:50:27.034Z,29.13
2023-02-23T17:52:55.101Z,33.92
2023-02-23T17:55:23.414Z,30.45
2023-02-23T17:57:50.713Z,30.17
2023-02-23T18:00:20.006Z,26.25
2023-02-23T18:02:47.462Z,28.15
2023-02-23T18:05:15.214Z,29.52
2023-02-23T18:07:43.028Z,26.85
2023-02-23T18:10:13.324Z,29.38
2023-02-23T18:12:41.547Z,25.27
2023-02-23T18:15:09.265Z,27.90
2023-02-23T18:17:37.126Z,25.33
2023-02-23T18:20:06.715Z,25.60
2023-02-23T18:22:34.156Z,27.40
2023-02-23T18:25:05.731Z,28.92
2023-02-23T18:27:33.010Z,30.20
2023-02-23T18:29:59.934Z,30.80
2023-02-23T18:32:27.511Z,31.92
2023-02-23T18:34:55.758Z,34.08
2023-02-23T18:37:25.075Z,33.75
2023-02-23T18:39:54.291Z,36.17
2023-02-23T18:42:21.273Z,33.97
2023-02-23T18:44:48.770Z,33.65
2023-02-23T18:47:15.788Z,34.42
2023-02-23T18:49:43.166Z,38.03
2023-02-23T18:52:10.617Z,35.97
2023-02-23T18:54:39.762Z,40.42
2023-02-23T18:57:06.993Z,37.17
2023-02-23T18:59:34.483Z,40.25
2023-02-23T19:02:01.447Z,40.92
2023-02-23T19:04:28.657Z,41.65
2023-02-23T19:06:55.636Z,43.35
2023-02-23T19:09:22.933Z,42.97
2023-02-23T19:11:50.986Z,37.92
2023-02-23T19:14:32.889Z,39.63
2023-02-23T19:17:08.236Z,40.70
2023-02-23T19:19:35.600Z,44.03
2023-02-23T19:22:02.526Z,45.22
2023-02-23T19:24:29.759Z,48.63
2023-02-23T19:26:56.745Z,45.95
2023-02-23T19:29:23.964Z,46.95
2023-02-23T19:31:51.236Z,41.33
2023-02-23T19:34:18.745Z,46.72
2023-02-23T19:36:46.404Z,44.38
2023-02-23T19:39:15.457Z,42.20
2023-02-23T19:41:45.539Z,42.38
2023-02-23T19:44:12.885Z,41.33
2023-02-23T19:46:40.299Z,45.85
2023-02-23T19:49:07.574Z,40.85
2023-02-23T19:51:36.107Z,47.65
2023-02-23T19:54:04.460Z,45.00
2023-02-23T19:56:31.436Z,44.85
2023-02-23T19:59:02.276Z,45.08
2023-02-23T20:01:29.935Z,45.83
2023-02-23T20:04:01.942Z,42.70
2023-02-23T20:06:38.716Z,44.45
2023-02-23T20:09:06.009Z,45.58
2023-02-23T20:11:33.698Z,44.90
2023-02-23T20:14:04.181Z,48.65
2023-02-23T20:16:31.854Z,45.10
2023-02-23T20:18:59.723Z,44.53
2023-02-23T20:21:31.340Z,48.47
2023-02-23T20:24:00.662Z,51.00
2023-02-23T20:26:35.394Z,45.17
2023-02-23T20:29:06.773Z,47.88
2023-02-23T20:31:36.723Z,48.92
2023-02-23T20:34:10.837Z,46.72
2023-02-23T20:36:38.729Z,52.80
2023-02-23T20:39:06.106Z,44.47
2023-02-23T20:41:33.287Z,50.05
2023-02-23T20:44:03.365Z,46.17
2023-02-23T20:46:30.920Z,46.05
2023-02-23T20:48:59.238Z,46.38
2023-02-23T20:51:27.486Z,47.35
2023-02-23T20:53:55.033Z,46.38
2023-02-23T20:56:22.271Z,41.10
2023-02-23T20:58:49.768Z,50.47
2023-02-23T21:01:22.735Z,46.38
2023-02-23T21:03:52.226Z,51.13
2023-02-23T21:06:21.929Z,51.45
2023-02-23T21:08:51.034Z,47.42
2023-02-23T21:11:20.050Z,55.22
2023-02-23T21:13:48.609Z,50.08
2023-02-23T21:16:19.008Z,49.40
2023-02-23T21:18:52.763Z,48.63
2023-02-23T21:21:20.852Z,49.72
2023-02-23T21:23:51.215Z,53.60
2023-02-23T21:26:21.524Z,54.95
2023-02-23T21:28:49.192Z,56.67
2023-02-23T21:31:16.817Z,59.70
2023-02-23T21:33:44.275Z,57.90
2023-02-23T21:36:13.077Z,61.70
2023-02-23T21:38:43.806Z,67.28
2023-02-23T21:41:14.152Z,62.70
2023-02-23T21:43:44.375Z,63.05
2023-02-23T21:46:16.105Z,64.57
2023-02-23T21:48:44.271Z,61.28
2023-02-23T21:51:14.658Z,64.22
2023-02-23T21:53:44.542Z,56.58
2023-02-23T21:56:20.220Z,62.60
2023-02-23T21:58:51.808Z,55.33
2023-02-23T22:01:26.614Z,58.92
2023-02-23T22:03:55.110Z,60.65
2023-02-23T22:06:27.760Z,58.08
2023-02-23T22:08:56.224Z,55.70
2023-02-23T22:11:27.325Z,60.80
2023-02-23T22:13:58.768Z,57.92
2023-02-23T22:16:30.698Z,55.42
2023-02-23T22:18:58.726Z,54.90
2023-02-23T22:21:25.616Z,57.80
2023-02-23T22:23:54.086Z,53.65
2023-02-23T22:26:21.079Z,55.58
2023-02-23T22:28:48.351Z,55.30
2023-02-23T22:31:15.601Z,63.20
2023-02-23T22:33:44.349Z,55.80
2023-02-23T22:36:14.664Z,54.58
2023-02-23T22:38:42.025Z,56.35
2023-02-23T22:41:10.402Z,56.47
2023-02-23T22:43:39.335Z,52.55
2023-02-23T22:46:07.830Z,57.15
2023-02-23T22:48:36.523Z,50.78
2023-02-23T22:51:07.717Z,60.33
2023-02-23T22:53:34.924Z,54.83
2023-02-23T22:56:03.876Z,55.83
2023-02-23T22:58:32.667Z,57.22
2023-02-23T23:01:04.234Z,55.20
2023-02-23T23:03:46.235Z,56.22
2023-02-23T23:06:22.672Z,63.78
2023-02-23T23:08:56.695Z,59.35
2023-02-23T23:11:28.063Z,57.22
2023-02-23T23:14:02.827Z,53.00
2023-02-23T23:16:34.650Z,55.42
2023-02-23T23:19:12.070Z,54.85
2023-02-23T23:21:42.502Z,54.60
2023-02-23T23:24:15.579Z,59.35
2023-02-23T23:26:44.213Z,61.13
2023-02-23T23:29:14.629Z,62.47
2023-02-23T23:31:46.401Z,63.25
2023-02-23T23:34:16.492Z,57.88
2023-02-23T23:36:48.674Z,59.75
2023-02-23T23:39:22.644Z,60.17
2023-02-23T23:41:50.344Z,65.10
2023-02-23T23:44:24.601Z,59.40
2023-02-23T23:46:52.655Z,56.47
2023-02-23T23:49:25.424Z,53.45
2023-02-23T23:54:31.016Z,51.58
2023-02-23T23:57:01.537Z,48.67
2023-02-23T23:59:31.533Z,45.60
